sensor_id;sensor_type;location;lat;lon;timestamp;P1;durP1;ratioP1;P2;durP2;ratioP2
11396;SDS011;5754;43.726;7.416;2023-03-24T00:02:31;14.10;;;9.20;;
11396;SDS011;5754;43.726;7.416;2023-03-24T00:05:10;11.00;;;9.27;;
11396;SDS011;5754;43.726;7.416;2023-03-24T00:07:45;13.93;;;8.80;;
11396;SDS011;5754;43.726;7.416;2023-03-24T00:10:21;10.53;;;7.60;;
11396;SDS011;5754;43.726;7.416;2023-03-24T00:12:56;9.70;;;7.20;;
11396;SDS011;5754;43.726;7.416;2023-03-24T00:15:31;9.00;;;7.40;;
11396;SDS011;5754;43.726;7.416;2023-03-24T00:18:06;9.53;;;7.43;;
11396;SDS011;5754;43.726;7.416;2023-03-24T00:20:43;7.90;;;6.67;;
11396;SDS011;5754;43.726;7.416;2023-03-24T00:23:18;10.70;;;7.27;;
11396;SDS011;5754;43.726;7.416;2023-03-24T00:26:05;8.10;;;7.00;;
11396;SDS011;5754;43.726;7.416;2023-03-24T00:28:42;8.30;;;7.50;;
11396;SDS011;5754;43.726;7.416;2023-03-24T00:31:18;12.73;;;9.00;;
11396;SDS011;5754;43.726;7.416;2023-03-24T00:33:53;12.47;;;10.20;;
11396;SDS011;5754;43.726;7.416;2023-03-24T00:36:28;12.63;;;9.37;;
11396;SDS011;5754;43.726;7.416;2023-03-24T00:39:03;12.97;;;10.20;;
11396;SDS011;5754;43.726;7.416;2023-03-24T00:41:39;13.43;;;10.73;;
11396;SDS011;5754;43.726;7.416;2023-03-24T00:44:17;13.60;;;9.97;;
11396;SDS011;5754;43.726;7.416;2023-03-24T00:46:52;14.43;;;10.57;;
11396;SDS011;5754;43.726;7.416;2023-03-24T00:49:30;14.37;;;11.03;;
11396;SDS011;5754;43.726;7.416;2023-03-24T00:52:20;14.03;;;10.63;;
11396;SDS011;5754;43.726;7.416;2023-03-24T00:54:55;13.40;;;11.70;;
11396;SDS011;5754;43.726;7.416;2023-03-24T00:57:31;13.53;;;10.70;;
11396;SDS011;5754;43.726;7.416;2023-03-24T01:00:08;11.10;;;10.07;;
11396;SDS011;5754;43.726;7.416;2023-03-24T01:02:47;13.87;;;11.37;;
11396;SDS011;5754;43.726;7.416;2023-03-24T01:05:27;11.90;;;10.40;;
11396;SDS011;5754;43.726;7.416;2023-03-24T01:08:03;13.50;;;10.10;;
11396;SDS011;5754;43.726;7.416;2023-03-24T01:10:39;10.90;;;9.80;;
11396;SDS011;5754;43.726;7.416;2023-03-24T01:13:16;13.30;;;10.57;;
11396;SDS011;5754;43.726;7.416;2023-03-24T01:15:51;12.53;;;10.23;;
11396;SDS011;5754;43.726;7.416;2023-03-24T01:18:26;11.90;;;9.70;;
11396;SDS011;5754;43.726;7.416;2023-03-24T01:21:01;11.37;;;9.90;;
11396;SDS011;5754;43.726;7.416;2023-03-24T01:23:35;12.30;;;9.37;;
11396;SDS011;5754;43.726;7.416;2023-03-24T01:26:10;13.97;;;10.20;;
11396;SDS011;5754;43.726;7.416;2023-03-24T01:28:45;15.93;;;9.87;;
11396;SDS011;5754;43.726;7.416;2023-03-24T01:31:20;9.83;;;8.90;;
11396;SDS011;5754;43.726;7.416;2023-03-24T01:33:56;13.20;;;9.70;;
11396;SDS011;5754;43.726;7.416;2023-03-24T01:36:31;11.73;;;9.53;;
11396;SDS011;5754;43.726;7.416;2023-03-24T01:39:06;11.90;;;10.30;;
11396;SDS011;5754;43.726;7.416;2023-03-24T01:41:41;12.10;;;10.30;;
11396;SDS011;5754;43.726;7.416;2023-03-24T01:44:32;10.67;;;9.50;;
11396;SDS011;5754;43.726;7.416;2023-03-24T01:47:07;12.40;;;10.03;;
11396;SDS011;5754;43.726;7.416;2023-03-24T01:49:44;10.17;;;8.70;;
11396;SDS011;5754;43.726;7.416;2023-03-24T01:52:25;9.77;;;8.87;;
11396;SDS011;5754;43.726;7.416;2023-03-24T01:55:02;12.03;;;9.23;;
11396;SDS011;5754;43.726;7.416;2023-03-24T01:57:42;10.40;;;9.30;;
11396;SDS011;5754;43.726;7.416;2023-03-24T02:00:18;11.27;;;9.57;;
11396;SDS011;5754;43.726;7.416;2023-03-24T02:04:03;11.30;;;10.13;;
11396;SDS011;5754;43.726;7.416;2023-03-24T02:06:40;14.20;;;10.57;;
11396;SDS011;5754;43.726;7.416;2023-03-24T02:09:16;12.20;;;11.00;;
11396;SDS011;5754;43.726;7.416;2023-03-24T02:11:50;12.13;;;10.53;;
11396;SDS011;5754;43.726;7.416;2023-03-24T02:14:25;12.10;;;10.60;;
11396;SDS011;5754;43.726;7.416;2023-03-24T02:25:19;11.47;;;9.93;;
11396;SDS011;5754;43.726;7.416;2023-03-24T02:28:10;11.73;;;10.53;;
11396;SDS011;5754;43.726;7.416;2023-03-24T02:31:02;12.40;;;10.30;;
11396;SDS011;5754;43.726;7.416;2023-03-24T02:34:04;14.07;;;10.43;;
11396;SDS011;5754;43.726;7.416;2023-03-24T02:39:40;10.73;;;9.37;;
11396;SDS011;5754;43.726;7.416;2023-03-24T02:51:51;9.17;;;8.17;;
11396;SDS011;5754;43.726;7.416;2023-03-24T02:54:36;9.30;;;7.77;;
11396;SDS011;5754;43.726;7.416;2023-03-24T02:57:21;8.70;;;7.90;;
11396;SDS011;5754;43.726;7.416;2023-03-24T03:01:32;12.70;;;8.30;;
11396;SDS011;5754;43.726;7.416;2023-03-24T03:04:32;9.73;;;8.73;;
11396;SDS011;5754;43.726;7.416;2023-03-24T03:07:09;14.20;;;9.43;;
11396;SDS011;5754;43.726;7.416;2023-03-24T03:09:50;12.73;;;8.23;;
11396;SDS011;5754;43.726;7.416;2023-03-24T03:12:29;10.97;;;8.20;;
11396;SDS011;5754;43.726;7.416;2023-03-24T03:15:10;10.77;;;8.20;;
11396;SDS011;5754;43.726;7.416;2023-03-24T03:18:00;10.23;;;8.53;;
11396;SDS011;5754;43.726;7.416;2023-03-24T03:20:41;12.70;;;8.70;;
11396;SDS011;5754;43.726;7.416;2023-03-24T03:23:26;9.77;;;8.73;;
11396;SDS011;5754;43.726;7.416;2023-03-24T03:26:03;14.10;;;8.57;;
11396;SDS011;5754;43.726;7.416;2023-03-24T03:28:41;10.03;;;7.90;;
11396;SDS011;5754;43.726;7.416;2023-03-24T03:31:27;8.57;;;7.70;;
11396;SDS011;5754;43.726;7.416;2023-03-24T03:34:24;10.23;;;7.10;;
11396;SDS011;5754;43.726;7.416;2023-03-24T03:37:12;9.80;;;6.50;;
11396;SDS011;5754;43.726;7.416;2023-03-24T03:39:56;6.13;;;5.53;;
11396;SDS011;5754;43.726;7.416;2023-03-24T03:42:32;6.07;;;5.30;;
11396;SDS011;5754;43.726;7.416;2023-03-24T03:45:07;6.10;;;5.00;;
11396;SDS011;5754;43.726;7.416;2023-03-24T03:47:44;7.37;;;4.87;;
11396;SDS011;5754;43.726;7.416;2023-03-24T03:50:19;5.83;;;4.40;;
11396;SDS011;5754;43.726;7.416;2023-03-24T03:52:54;6.43;;;5.47;;
11396;SDS011;5754;43.726;7.416;2023-03-24T03:55:30;8.87;;;5.30;;
11396;SDS011;5754;43.726;7.416;2023-03-24T03:58:07;5.93;;;5.27;;
11396;SDS011;5754;43.726;7.416;2023-03-24T04:00:48;12.07;;;5.80;;
11396;SDS011;5754;43.726;7.416;2023-03-24T04:04:14;8.40;;;6.13;;
11396;SDS011;5754;43.726;7.416;2023-03-24T04:07:14;7.80;;;5.90;;
11396;SDS011;5754;43.726;7.416;2023-03-24T04:10:00;12.80;;;5.77;;
11396;SDS011;5754;43.726;7.416;2023-03-24T04:17:05;5.77;;;5.00;;
11396;SDS011;5754;43.726;7.416;2023-03-24T04:20:47;6.90;;;5.53;;
11396;SDS011;5754;43.726;7.416;2023-03-24T04:23:30;5.23;;;4.73;;
11396;SDS011;5754;43.726;7.416;2023-03-24T04:29:11;6.60;;;4.27;;
11396;SDS011;5754;43.726;7.416;2023-03-24T04:31:52;9.13;;;5.10;;
11396;SDS011;5754;43.726;7.416;2023-03-24T04:34:30;7.57;;;4.87;;
11396;SDS011;5754;43.726;7.416;2023-03-24T04:37:16;5.73;;;4.17;;
11396;SDS011;5754;43.726;7.416;2023-03-24T04:40:08;7.07;;;4.50;;
11396;SDS011;5754;43.726;7.416;2023-03-24T04:42:48;9.00;;;4.50;;
11396;SDS011;5754;43.726;7.416;2023-03-24T04:45:26;9.00;;;4.57;;
11396;SDS011;5754;43.726;7.416;2023-03-24T04:49:02;5.47;;;4.10;;
11396;SDS011;5754;43.726;7.416;2023-03-24T04:51:42;6.33;;;4.30;;
11396;SDS011;5754;43.726;7.416;2023-03-24T04:54:23;6.63;;;4.93;;
11396;SDS011;5754;43.726;7.416;2023-03-24T04:57:03;5.63;;;4.93;;
11396;SDS011;5754;43.726;7.416;2023-03-24T04:59:41;6.47;;;4.80;;
11396;SDS011;5754;43.726;7.416;2023-03-24T05:02:16;5.20;;;4.70;;
11396;SDS011;5754;43.726;7.416;2023-03-24T05:05:10;9.57;;;5.03;;
11396;SDS011;5754;43.726;7.416;2023-03-24T05:07:49;6.30;;;5.13;;
11396;SDS011;5754;43.726;7.416;2023-03-24T05:10:23;5.50;;;4.37;;
11396;SDS011;5754;43.726;7.416;2023-03-24T05:13:02;8.57;;;4.87;;
11396;SDS011;5754;43.726;7.416;2023-03-24T05:15:53;4.67;;;4.23;;
11396;SDS011;5754;43.726;7.416;2023-03-24T05:18:35;5.83;;;4.47;;
11396;SDS011;5754;43.726;7.416;2023-03-24T05:21:09;7.43;;;4.67;;
11396;SDS011;5754;43.726;7.416;2023-03-24T05:23:45;5.27;;;4.47;;
11396;SDS011;5754;43.726;7.416;2023-03-24T05:26:19;6.97;;;4.63;;
11396;SDS011;5754;43.726;7.416;2023-03-24T05:29:55;6.03;;;4.30;;
11396;SDS011;5754;43.726;7.416;2023-03-24T05:32:31;7.33;;;4.63;;
11396;SDS011;5754;43.726;7.416;2023-03-24T05:35:09;7.57;;;4.87;;
11396;SDS011;5754;43.726;7.416;2023-03-24T05:37:44;6.33;;;4.70;;
11396;SDS011;5754;43.726;7.416;2023-03-24T05:40:19;7.33;;;4.33;;
11396;SDS011;5754;43.726;7.416;2023-03-24T05:42:58;5.17;;;4.20;;
11396;SDS011;5754;43.726;7.416;2023-03-24T05:45:35;5.30;;;4.13;;
11396;SDS011;5754;43.726;7.416;2023-03-24T05:48:10;7.73;;;3.67;;
11396;SDS011;5754;43.726;7.416;2023-03-24T05:51:01;4.47;;;3.07;;
11396;SDS011;5754;43.726;7.416;2023-03-24T05:53:35;5.80;;;2.70;;
11396;SDS011;5754;43.726;7.416;2023-03-24T05:56:20;5.13;;;2.57;;
11396;SDS011;5754;43.726;7.416;2023-03-24T05:59:21;5.27;;;2.50;;
11396;SDS011;5754;43.726;7.416;2023-03-24T06:02:21;4.33;;;2.47;;
11396;SDS011;5754;43.726;7.416;2023-03-24T06:05:04;3.10;;;2.10;;
11396;SDS011;5754;43.726;7.416;2023-03-24T06:07:42;4.57;;;2.10;;
11396;SDS011;5754;43.726;7.416;2023-03-24T06:10:17;4.90;;;2.53;;
11396;SDS011;5754;43.726;7.416;2023-03-24T06:12:56;3.07;;;2.30;;
11396;SDS011;5754;43.726;7.416;2023-03-24T06:15:31;3.67;;;2.07;;
11396;SDS011;5754;43.726;7.416;2023-03-24T06:18:19;5.23;;;2.40;;
11396;SDS011;5754;43.726;7.416;2023-03-24T06:20:58;4.57;;;2.33;;
11396;SDS011;5754;43.726;7.416;2023-03-24T06:23:36;4.90;;;2.20;;
11396;SDS011;5754;43.726;7.416;2023-03-24T06:26:16;5.57;;;2.20;;
11396;SDS011;5754;43.726;7.416;2023-03-24T06:28:58;4.03;;;1.87;;
11396;SDS011;5754;43.726;7.416;2023-03-24T06:31:37;4.40;;;1.70;;
11396;SDS011;5754;43.726;7.416;2023-03-24T06:34:13;4.70;;;2.30;;
11396;SDS011;5754;43.726;7.416;2023-03-24T06:36:48;4.03;;;1.83;;
11396;SDS011;5754;43.726;7.416;2023-03-24T06:39:24;5.07;;;1.80;;
11396;SDS011;5754;43.726;7.416;2023-03-24T06:41:59;5.90;;;2.20;;
11396;SDS011;5754;43.726;7.416;2023-03-24T06:44:36;3.60;;;1.60;;
11396;SDS011;5754;43.726;7.416;2023-03-24T06:47:11;45.43;;;31.50;;
11396;SDS011;5754;43.726;7.416;2023-03-24T06:49:45;6.43;;;3.97;;
11396;SDS011;5754;43.726;7.416;2023-03-24T06:52:20;4.43;;;2.50;;
11396;SDS011;5754;43.726;7.416;2023-03-24T06:54:57;7.10;;;2.23;;
11396;SDS011;5754;43.726;7.416;2023-03-24T06:57:34;4.40;;;2.70;;
11396;SDS011;5754;43.726;7.416;2023-03-24T07:00:36;4.13;;;2.17;;
11396;SDS011;5754;43.726;7.416;2023-03-24T07:09:59;3.60;;;2.20;;
11396;SDS011;5754;43.726;7.416;2023-03-24T07:12:34;3.83;;;2.40;;
11396;SDS011;5754;43.726;7.416;2023-03-24T07:15:11;3.43;;;2.10;;
11396;SDS011;5754;43.726;7.416;2023-03-24T07:17:47;7.07;;;2.60;;
11396;SDS011;5754;43.726;7.416;2023-03-24T07:21:23;3.83;;;2.17;;
11396;SDS011;5754;43.726;7.416;2023-03-24T07:23:58;6.70;;;2.40;;
11396;SDS011;5754;43.726;7.416;2023-03-24T07:26:42;4.07;;;2.40;;
11396;SDS011;5754;43.726;7.416;2023-03-24T07:29:24;6.23;;;2.33;;
11396;SDS011;5754;43.726;7.416;2023-03-24T07:32:17;4.63;;;2.00;;
11396;SDS011;5754;43.726;7.416;2023-03-24T07:34:51;5.77;;;1.90;;
11396;SDS011;5754;43.726;7.416;2023-03-24T07:37:26;6.10;;;2.20;;
11396;SDS011;5754;43.726;7.416;2023-03-24T07:40:01;5.70;;;2.50;;
11396;SDS011;5754;43.726;7.416;2023-03-24T07:42:39;2.67;;;2.10;;
11396;SDS011;5754;43.726;7.416;2023-03-24T07:46:36;6.87;;;2.20;;
11396;SDS011;5754;43.726;7.416;2023-03-24T07:49:10;3.73;;;2.03;;
11396;SDS011;5754;43.726;7.416;2023-03-24T07:51:54;3.90;;;1.77;;
11396;SDS011;5754;43.726;7.416;2023-03-24T07:54:55;5.87;;;2.20;;
11396;SDS011;5754;43.726;7.416;2023-03-24T07:59:04;4.33;;;2.60;;
11396;SDS011;5754;43.726;7.416;2023-03-24T08:01:56;4.33;;;2.00;;
11396;SDS011;5754;43.726;7.416;2023-03-24T08:04:51;6.50;;;2.27;;
11396;SDS011;5754;43.726;7.416;2023-03-24T08:07:43;4.57;;;2.20;;
11396;SDS011;5754;43.726;7.416;2023-03-24T08:10:25;5.17;;;2.30;;
11396;SDS011;5754;43.726;7.416;2023-03-24T08:12:59;6.50;;;2.60;;
11396;SDS011;5754;43.726;7.416;2023-03-24T08:15:34;5.50;;;2.50;;
11396;SDS011;5754;43.726;7.416;2023-03-24T08:18:09;5.27;;;2.40;;
11396;SDS011;5754;43.726;7.416;2023-03-24T08:20:44;4.27;;;2.50;;
11396;SDS011;5754;43.726;7.416;2023-03-24T08:23:18;4.63;;;2.50;;
11396;SDS011;5754;43.726;7.416;2023-03-24T08:25:53;6.20;;;2.90;;
11396;SDS011;5754;43.726;7.416;2023-03-24T08:28:27;6.93;;;2.90;;
11396;SDS011;5754;43.726;7.416;2023-03-24T08:31:02;7.07;;;3.30;;
11396;SDS011;5754;43.726;7.416;2023-03-24T08:33:37;5.23;;;3.10;;
11396;SDS011;5754;43.726;7.416;2023-03-24T08:36:12;8.53;;;3.33;;
11396;SDS011;5754;43.726;7.416;2023-03-24T08:38:47;8.70;;;3.00;;
11396;SDS011;5754;43.726;7.416;2023-03-24T08:41:25;8.60;;;2.80;;
11396;SDS011;5754;43.726;7.416;2023-03-24T08:44:04;6.70;;;2.67;;
11396;SDS011;5754;43.726;7.416;2023-03-24T08:46:40;6.07;;;2.90;;
11396;SDS011;5754;43.726;7.416;2023-03-24T08:49:15;5.53;;;2.43;;
11396;SDS011;5754;43.726;7.416;2023-03-24T08:51:50;7.77;;;2.80;;
11396;SDS011;5754;43.726;7.416;2023-03-24T08:54:24;5.00;;;2.10;;
11396;SDS011;5754;43.726;7.416;2023-03-24T08:56:59;5.80;;;2.80;;
11396;SDS011;5754;43.726;7.416;2023-03-24T08:59:33;9.33;;;2.33;;
11396;SDS011;5754;43.726;7.416;2023-03-24T09:02:10;5.50;;;1.80;;
11396;SDS011;5754;43.726;7.416;2023-03-24T09:04:45;3.53;;;1.80;;
11396;SDS011;5754;43.726;7.416;2023-03-24T09:07:21;5.30;;;2.20;;
11396;SDS011;5754;43.726;7.416;2023-03-24T09:09:55;5.73;;;2.20;;
11396;SDS011;5754;43.726;7.416;2023-03-24T09:12:30;9.47;;;2.43;;
11396;SDS011;5754;43.726;7.416;2023-03-24T09:15:09;6.20;;;2.20;;
11396;SDS011;5754;43.726;7.416;2023-03-24T09:17:47;4.50;;;1.63;;
11396;SDS011;5754;43.726;7.416;2023-03-24T09:20:32;9.30;;;2.10;;
11396;SDS011;5754;43.726;7.416;2023-03-24T10:04:43;6.57;;;2.03;;
11396;SDS011;5754;43.726;7.416;2023-03-24T10:07:24;5.27;;;2.53;;
11396;SDS011;5754;43.726;7.416;2023-03-24T10:10:02;5.77;;;2.20;;
11396;SDS011;5754;43.726;7.416;2023-03-24T10:12:44;5.73;;;2.10;;
11396;SDS011;5754;43.726;7.416;2023-03-24T10:15:30;3.93;;;2.20;;
11396;SDS011;5754;43.726;7.416;2023-03-24T10:18:16;4.00;;;2.00;;
11396;SDS011;5754;43.726;7.416;2023-03-24T10:23:57;5.97;;;2.20;;
11396;SDS011;5754;43.726;7.416;2023-03-24T10:26:55;6.47;;;2.63;;
11396;SDS011;5754;43.726;7.416;2023-03-24T10:29:33;9.10;;;2.57;;
11396;SDS011;5754;43.726;7.416;2023-03-24T10:32:18;9.27;;;2.73;;
11396;SDS011;5754;43.726;7.416;2023-03-24T10:34:58;5.27;;;2.70;;
11396;SDS011;5754;43.726;7.416;2023-03-24T10:37:40;4.70;;;2.30;;
11396;SDS011;5754;43.726;7.416;2023-03-24T10:40:16;5.70;;;2.60;;
11396;SDS011;5754;43.726;7.416;2023-03-24T10:42:51;5.10;;;2.10;;
11396;SDS011;5754;43.726;7.416;2023-03-24T10:45:27;5.37;;;2.20;;
11396;SDS011;5754;43.726;7.416;2023-03-24T10:48:02;5.40;;;2.70;;
11396;SDS011;5754;43.726;7.416;2023-03-24T10:50:40;6.70;;;2.80;;
11396;SDS011;5754;43.726;7.416;2023-03-24T10:53:16;5.27;;;2.63;;
11396;SDS011;5754;43.726;7.416;2023-03-24T10:55:51;7.57;;;1.80;;
11396;SDS011;5754;43.726;7.416;2023-03-24T10:58:34;5.23;;;1.80;;
11396;SDS011;5754;43.726;7.416;2023-03-24T11:01:19;8.17;;;3.20;;
11396;SDS011;5754;43.726;7.416;2023-03-24T11:03:59;5.70;;;2.60;;
11396;SDS011;5754;43.726;7.416;2023-03-24T11:06:34;7.23;;;2.43;;
11396;SDS011;5754;43.726;7.416;2023-03-24T11:09:19;6.17;;;2.60;;
11396;SDS011;5754;43.726;7.416;2023-03-24T11:11:55;5.77;;;1.90;;
11396;SDS011;5754;43.726;7.416;2023-03-24T11:14:35;5.87;;;2.00;;
11396;SDS011;5754;43.726;7.416;2023-03-24T11:17:16;5.03;;;2.20;;
11396;SDS011;5754;43.726;7.416;2023-03-24T11:19:55;5.97;;;2.07;;
11396;SDS011;5754;43.726;7.416;2023-03-24T11:22:29;5.07;;;2.17;;
11396;SDS011;5754;43.726;7.416;2023-03-24T11:25:07;6.47;;;2.40;;
11396;SDS011;5754;43.726;7.416;2023-03-24T11:27:43;3.20;;;1.73;;
11396;SDS011;5754;43.726;7.416;2023-03-24T11:30:18;8.13;;;2.00;;
11396;SDS011;5754;43.726;7.416;2023-03-24T11:32:53;6.63;;;2.30;;
11396;SDS011;5754;43.726;7.416;2023-03-24T11:35:27;6.27;;;2.50;;
11396;SDS011;5754;43.726;7.416;2023-03-24T11:38:12;9.67;;;2.50;;
11396;SDS011;5754;43.726;7.416;2023-03-24T11:40:56;5.33;;;2.50;;
11396;SDS011;5754;43.726;7.416;2023-03-24T11:43:31;6.33;;;2.20;;
11396;SDS011;5754;43.726;7.416;2023-03-24T11:46:07;4.50;;;1.90;;
11396;SDS011;5754;43.726;7.416;2023-03-24T11:51:36;7.30;;;2.40;;
11396;SDS011;5754;43.726;7.416;2023-03-24T11:54:12;6.60;;;2.47;;
11396;SDS011;5754;43.726;7.416;2023-03-24T11:56:52;5.17;;;2.00;;
11396;SDS011;5754;43.726;7.416;2023-03-24T11:59:31;7.60;;;2.50;;
11396;SDS011;5754;43.726;7.416;2023-03-24T12:02:19;5.10;;;2.30;;
11396;SDS011;5754;43.726;7.416;2023-03-24T12:05:10;5.73;;;1.80;;
11396;SDS011;5754;43.726;7.416;2023-03-24T12:08:36;7.17;;;1.70;;
11396;SDS011;5754;43.726;7.416;2023-03-24T12:20:58;6.30;;;2.60;;
11396;SDS011;5754;43.726;7.416;2023-03-24T12:23:50;10.00;;;2.50;;
11396;SDS011;5754;43.726;7.416;2023-03-24T12:26:26;7.23;;;2.40;;
11396;SDS011;5754;43.726;7.416;2023-03-24T12:29:15;8.03;;;2.27;;
11396;SDS011;5754;43.726;7.416;2023-03-24T12:32:00;9.03;;;2.87;;
11396;SDS011;5754;43.726;7.416;2023-03-24T12:36:03;9.83;;;2.90;;
11396;SDS011;5754;43.726;7.416;2023-03-24T12:38:57;5.83;;;2.20;;
11396;SDS011;5754;43.726;7.416;2023-03-24T12:41:38;8.97;;;2.43;;
11396;SDS011;5754;43.726;7.416;2023-03-24T12:45:01;5.43;;;1.93;;
11396;SDS011;5754;43.726;7.416;2023-03-24T12:47:52;8.33;;;2.70;;
11396;SDS011;5754;43.726;7.416;2023-03-24T12:50:41;6.90;;;2.40;;
11396;SDS011;5754;43.726;7.416;2023-03-24T12:53:24;11.57;;;3.73;;
11396;SDS011;5754;43.726;7.416;2023-03-24T12:56:15;11.60;;;3.63;;
11396;SDS011;5754;43.726;7.416;2023-03-24T12:58:53;10.13;;;2.80;;
11396;SDS011;5754;43.726;7.416;2023-03-24T13:01:47;7.33;;;2.57;;
11396;SDS011;5754;43.726;7.416;2023-03-24T13:04:25;12.10;;;2.83;;
11396;SDS011;5754;43.726;7.416;2023-03-24T13:07:07;7.70;;;2.13;;
11396;SDS011;5754;43.726;7.416;2023-03-24T13:10:06;10.10;;;2.83;;
11396;SDS011;5754;43.726;7.416;2023-03-24T13:13:33;12.60;;;2.37;;
11396;SDS011;5754;43.726;7.416;2023-03-24T13:16:18;9.13;;;2.40;;
11396;SDS011;5754;43.726;7.416;2023-03-24T13:18:55;12.90;;;2.80;;
11396;SDS011;5754;43.726;7.416;2023-03-24T13:21:32;8.33;;;2.30;;
11396;SDS011;5754;43.726;7.416;2023-03-24T13:24:09;13.47;;;2.63;;
11396;SDS011;5754;43.726;7.416;2023-03-24T13:26:53;15.47;;;3.27;;
11396;SDS011;5754;43.726;7.416;2023-03-24T13:33:29;10.07;;;2.43;;
11396;SDS011;5754;43.726;7.416;2023-03-24T13:41:19;12.50;;;2.90;;
11396;SDS011;5754;43.726;7.416;2023-03-24T13:44:00;7.87;;;2.33;;
11396;SDS011;5754;43.726;7.416;2023-03-24T13:46:36;7.67;;;2.00;;
11396;SDS011;5754;43.726;7.416;2023-03-24T13:49:11;10.23;;;2.70;;
11396;SDS011;5754;43.726;7.416;2023-03-24T13:51:47;11.50;;;2.37;;
11396;SDS011;5754;43.726;7.416;2023-03-24T13:54:26;12.30;;;2.43;;
11396;SDS011;5754;43.726;7.416;2023-03-24T13:57:12;7.67;;;1.97;;
11396;SDS011;5754;43.726;7.416;2023-03-24T14:04:25;11.73;;;2.60;;
11396;SDS011;5754;43.726;7.416;2023-03-24T14:07:05;12.33;;;3.27;;
11396;SDS011;5754;43.726;7.416;2023-03-24T14:09:58;13.63;;;3.10;;
11396;SDS011;5754;43.726;7.416;2023-03-24T14:12:33;7.07;;;2.97;;
11396;SDS011;5754;43.726;7.416;2023-03-24T14:19:39;9.83;;;2.50;;
11396;SDS011;5754;43.726;7.416;2023-03-24T14:22:20;13.37;;;3.23;;
11396;SDS011;5754;43.726;7.416;2023-03-24T14:24:59;10.47;;;2.60;;
11396;SDS011;5754;43.726;7.416;2023-03-24T14:27:35;10.13;;;2.57;;
11396;SDS011;5754;43.726;7.416;2023-03-24T14:30:15;9.07;;;2.73;;
11396;SDS011;5754;43.726;7.416;2023-03-24T14:32:56;12.37;;;2.87;;
11396;SDS011;5754;43.726;7.416;2023-03-24T14:35:41;12.83;;;2.83;;
11396;SDS011;5754;43.726;7.416;2023-03-24T14:38:20;10.77;;;2.73;;
11396;SDS011;5754;43.726;7.416;2023-03-24T14:40:55;10.43;;;2.60;;
11396;SDS011;5754;43.726;7.416;2023-03-24T14:47:06;13.50;;;3.00;;
11396;SDS011;5754;43.726;7.416;2023-03-24T14:49:42;12.03;;;2.90;;
11396;SDS011;5754;43.726;7.416;2023-03-24T14:52:19;9.27;;;3.17;;
11396;SDS011;5754;43.726;7.416;2023-03-24T14:54:57;11.43;;;2.60;;
11396;SDS011;5754;43.726;7.416;2023-03-24T14:57:39;10.63;;;2.30;;
11396;SDS011;5754;43.726;7.416;2023-03-24T15:00:18;14.20;;;3.47;;
11396;SDS011;5754;43.726;7.416;2023-03-24T15:03:00;10.83;;;3.10;;
11396;SDS011;5754;43.726;7.416;2023-03-24T15:05:36;13.87;;;3.00;;
11396;SDS011;5754;43.726;7.416;2023-03-24T15:08:15;13.40;;;2.63;;
11396;SDS011;5754;43.726;7.416;2023-03-24T15:11:01;11.77;;;3.73;;
11396;SDS011;5754;43.726;7.416;2023-03-24T15:13:40;13.67;;;3.80;;
11396;SDS011;5754;43.726;7.416;2023-03-24T15:16:20;13.50;;;3.27;;
11396;SDS011;5754;43.726;7.416;2023-03-24T15:22:14;10.60;;;2.80;;
11396;SDS011;5754;43.726;7.416;2023-03-24T15:24:49;12.47;;;3.37;;
11396;SDS011;5754;43.726;7.416;2023-03-24T15:27:24;20.50;;;5.93;;
11396;SDS011;5754;43.726;7.416;2023-03-24T15:29:59;17.43;;;3.73;;
11396;SDS011;5754;43.726;7.416;2023-03-24T15:32:34;11.97;;;2.97;;
11396;SDS011;5754;43.726;7.416;2023-03-24T15:35:14;15.07;;;3.63;;
11396;SDS011;5754;43.726;7.416;2023-03-24T15:37:50;13.97;;;3.23;;
11396;SDS011;5754;43.726;7.416;2023-03-24T15:40:35;13.97;;;3.70;;
11396;SDS011;5754;43.726;7.416;2023-03-24T15:43:15;14.20;;;3.37;;
11396;SDS011;5754;43.726;7.416;2023-03-24T15:45:52;17.83;;;3.30;;
11396;SDS011;5754;43.726;7.416;2023-03-24T15:48:32;14.97;;;3.67;;
11396;SDS011;5754;43.726;7.416;2023-03-24T15:51:09;14.63;;;3.53;;
11396;SDS011;5754;43.726;7.416;2023-03-24T15:53:54;13.33;;;3.77;;
11396;SDS011;5754;43.726;7.416;2023-03-24T15:56:29;13.47;;;2.73;;
11396;SDS011;5754;43.726;7.416;2023-03-24T15:59:13;13.97;;;3.27;;
11396;SDS011;5754;43.726;7.416;2023-03-24T16:01:48;17.37;;;3.77;;
11396;SDS011;5754;43.726;7.416;2023-03-24T16:04:24;14.20;;;3.80;;
11396;SDS011;5754;43.726;7.416;2023-03-24T16:06:58;13.37;;;3.43;;
11396;SDS011;5754;43.726;7.416;2023-03-24T16:09:34;16.83;;;3.50;;
11396;SDS011;5754;43.726;7.416;2023-03-24T16:12:10;13.07;;;4.07;;
11396;SDS011;5754;43.726;7.416;2023-03-24T16:14:45;13.87;;;4.23;;
11396;SDS011;5754;43.726;7.416;2023-03-24T16:17:20;15.60;;;4.77;;
11396;SDS011;5754;43.726;7.416;2023-03-24T16:19:55;13.63;;;3.10;;
11396;SDS011;5754;43.726;7.416;2023-03-24T16:22:30;15.23;;;3.70;;
11396;SDS011;5754;43.726;7.416;2023-03-24T16:25:07;12.43;;;3.70;;
11396;SDS011;5754;43.726;7.416;2023-03-24T16:27:41;16.57;;;4.10;;
11396;SDS011;5754;43.726;7.416;2023-03-24T16:30:16;15.20;;;3.60;;
11396;SDS011;5754;43.726;7.416;2023-03-24T16:32:54;12.87;;;3.57;;
11396;SDS011;5754;43.726;7.416;2023-03-24T16:35:29;13.83;;;3.60;;
11396;SDS011;5754;43.726;7.416;2023-03-24T16:38:03;14.17;;;3.30;;
11396;SDS011;5754;43.726;7.416;2023-03-24T16:40:40;17.43;;;5.17;;
11396;SDS011;5754;43.726;7.416;2023-03-24T16:43:15;13.90;;;3.97;;
11396;SDS011;5754;43.726;7.416;2023-03-24T16:45:52;15.97;;;3.53;;
11396;SDS011;5754;43.726;7.416;2023-03-24T16:48:27;14.23;;;3.73;;
11396;SDS011;5754;43.726;7.416;2023-03-24T16:51:02;13.50;;;3.50;;
11396;SDS011;5754;43.726;7.416;2023-03-24T16:53:36;14.70;;;3.33;;
11396;SDS011;5754;43.726;7.416;2023-03-24T16:56:12;16.80;;;5.70;;
11396;SDS011;5754;43.726;7.416;2023-03-24T16:58:46;16.87;;;4.07;;
11396;SDS011;5754;43.726;7.416;2023-03-24T17:01:31;13.70;;;4.13;;
11396;SDS011;5754;43.726;7.416;2023-03-24T17:04:10;12.97;;;3.37;;
11396;SDS011;5754;43.726;7.416;2023-03-24T17:06:46;18.73;;;3.93;;
11396;SDS011;5754;43.726;7.416;2023-03-24T17:09:27;14.23;;;3.37;;
11396;SDS011;5754;43.726;7.416;2023-03-24T17:12:04;17.60;;;4.17;;
11396;SDS011;5754;43.726;7.416;2023-03-24T17:14:38;13.97;;;3.87;;
11396;SDS011;5754;43.726;7.416;2023-03-24T17:17:14;16.27;;;4.80;;
11396;SDS011;5754;43.726;7.416;2023-03-24T17:19:48;17.73;;;4.20;;
11396;SDS011;5754;43.726;7.416;2023-03-24T17:22:23;18.17;;;4.23;;
11396;SDS011;5754;43.726;7.416;2023-03-24T17:24:58;14.97;;;4.30;;
11396;SDS011;5754;43.726;7.416;2023-03-24T17:27:32;17.67;;;4.40;;
11396;SDS011;5754;43.726;7.416;2023-03-24T17:30:07;16.20;;;4.10;;
11396;SDS011;5754;43.726;7.416;2023-03-24T17:32:44;18.27;;;4.10;;
11396;SDS011;5754;43.726;7.416;2023-03-24T17:35:20;16.07;;;4.17;;
11396;SDS011;5754;43.726;7.416;2023-03-24T17:37:56;13.40;;;4.13;;
11396;SDS011;5754;43.726;7.416;2023-03-24T17:40:30;18.27;;;4.20;;
11396;SDS011;5754;43.726;7.416;2023-03-24T17:43:05;22.03;;;5.17;;
11396;SDS011;5754;43.726;7.416;2023-03-24T17:45:39;13.17;;;4.30;;
11396;SDS011;5754;43.726;7.416;2023-03-24T17:48:14;21.03;;;5.23;;
11396;SDS011;5754;43.726;7.416;2023-03-24T17:50:48;20.43;;;4.63;;
11396;SDS011;5754;43.726;7.416;2023-03-24T17:53:24;16.40;;;4.73;;
11396;SDS011;5754;43.726;7.416;2023-03-24T17:56:00;19.10;;;4.60;;
11396;SDS011;5754;43.726;7.416;2023-03-24T17:58:38;16.87;;;4.20;;
11396;SDS011;5754;43.726;7.416;2023-03-24T18:01:12;17.80;;;4.23;;
11396;SDS011;5754;43.726;7.416;2023-03-24T18:03:51;18.83;;;5.13;;
11396;SDS011;5754;43.726;7.416;2023-03-24T18:06:26;22.37;;;5.00;;
11396;SDS011;5754;43.726;7.416;2023-03-24T18:09:00;19.50;;;4.50;;
11396;SDS011;5754;43.726;7.416;2023-03-24T18:11:35;18.10;;;5.03;;
11396;SDS011;5754;43.726;7.416;2023-03-24T18:14:09;17.83;;;4.50;;
11396;SDS011;5754;43.726;7.416;2023-03-24T18:16:45;18.47;;;3.73;;